Atkinson, North Carolina
Current Conditions -  °F | °C
As of 1:53 PM on Monday 20 Oct 2014 (Local Time) from KILM Reporting Station
Few Clouds Few Clouds  
Wind Chill: 73°   Ceiling: Unl
Heat Index: 73°   Visibility: 10mi
Dew Point: 55°   Wind: 8mph
Humidity: 53%   Direction: 150°SSE
Pressure: 30.07"   Gusts: NA
Location:  34.53°N, 78.17°W
Report Text: KILM 201753Z AUTO 15007KT 10SM FEW042 23/13 A3007 RMK AO2 SLP181 6//// T02280128 10233 20083 58032
Loading
Personal Weather Stations






























Interactive Weather Map New forecast layout! Learn more

10-Day Weather Forecast

Advertisements
Track Severe Weather on mobile